createdAt,value
2019-06-15T00:01:41.531Z,21.30
2019-06-15T00:04:08.236Z,21.30
2019-06-15T00:06:34.793Z,21.20
2019-06-15T00:09:01.605Z,21.10
2019-06-15T00:11:28.351Z,21.00
2019-06-15T00:13:55.332Z,20.90
2019-06-15T00:16:22.343Z,20.70
2019-06-15T00:18:48.804Z,20.60
2019-06-15T00:21:15.303Z,20.60
2019-06-15T00:23:41.894Z,20.50
2019-06-15T00:26:08.646Z,20.50
2019-06-15T00:28:35.507Z,20.50
2019-06-15T00:31:02.939Z,20.50
2019-06-15T00:33:30.061Z,20.40
2019-06-15T00:35:56.839Z,20.40
2019-06-15T00:38:23.536Z,20.30
2019-06-15T00:40:50.254Z,20.30
2019-06-15T00:43:17.028Z,20.30
2019-06-15T00:45:43.742Z,20.20
2019-06-15T00:48:10.543Z,20.20
2019-06-15T00:50:37.050Z,20.20
2019-06-15T00:53:03.564Z,20.20
2019-06-15T00:55:30.093Z,20.10
2019-06-15T00:57:56.584Z,20.10
2019-06-15T01:00:23.333Z,20.00
2019-06-15T01:02:50.331Z,20.00
2019-06-15T01:05:16.798Z,20.00
2019-06-15T01:07:43.890Z,20.00
2019-06-15T01:10:10.475Z,20.00
2019-06-15T01:12:37.720Z,20.00
2019-06-15T01:15:04.266Z,20.00
2019-06-15T01:17:31.385Z,20.00
2019-06-15T01:19:58.378Z,19.90
2019-06-15T01:22:25.312Z,19.90
2019-06-15T01:25:04.939Z,19.90
2019-06-15T01:27:20.707Z,19.80
2019-06-15T01:29:47.170Z,19.80
2019-06-15T01:32:14.159Z,19.70
2019-06-15T01:34:41.147Z,19.70
2019-06-15T01:37:08.192Z,19.60
2019-06-15T01:39:35.489Z,19.50
2019-06-15T01:42:02.084Z,19.50
2019-06-15T01:44:29.106Z,19.50
2019-06-15T01:46:56.039Z,19.50
2019-06-15T01:49:22.547Z,19.40
2019-06-15T01:51:49.016Z,19.40
2019-06-15T01:54:15.771Z,19.30
2019-06-15T01:56:42.464Z,19.30
2019-06-15T01:59:08.975Z,19.30
2019-06-15T02:01:35.487Z,19.30
2019-06-15T02:04:02.096Z,19.30
2019-06-15T02:06:28.661Z,19.30
2019-06-15T02:08:55.279Z,19.20
2019-06-15T02:11:22.263Z,19.20
2019-06-15T02:13:48.764Z,19.20
2019-06-15T02:16:15.479Z,19.10
2019-06-15T02:18:42.204Z,19.10
2019-06-15T02:21:09.170Z,19.10
2019-06-15T02:23:35.759Z,19.10
2019-06-15T02:26:02.282Z,19.00
2019-06-15T02:28:29.353Z,19.00
2019-06-15T02:30:56.060Z,19.00
2019-06-15T02:33:22.548Z,18.90
2019-06-15T02:35:49.491Z,18.80
2019-06-15T02:38:16.232Z,18.70
2019-06-15T02:40:42.951Z,18.70
2019-06-15T02:43:09.696Z,18.70
2019-06-15T02:45:36.411Z,18.70
2019-06-15T02:48:02.919Z,18.80
2019-06-15T02:50:29.908Z,18.90
2019-06-15T02:52:56.374Z,18.90
2019-06-15T02:55:22.894Z,18.90
2019-06-15T02:57:49.677Z,18.90
2019-06-15T03:00:22.164Z,18.90
2019-06-15T03:02:48.629Z,18.90
2019-06-15T03:05:15.374Z,18.80
2019-06-15T03:07:41.828Z,18.80
2019-06-15T03:10:08.323Z,18.80
2019-06-15T03:12:35.043Z,18.70
2019-06-15T03:15:01.647Z,18.70
2019-06-15T03:17:28.672Z,18.60
2019-06-15T03:19:55.412Z,18.60
2019-06-15T03:22:22.156Z,18.60
2019-06-15T03:24:49.152Z,18.60
2019-06-15T03:27:15.614Z,18.60
2019-06-15T03:29:42.383Z,18.60
2019-06-15T03:32:09.103Z,18.60
2019-06-15T03:34:35.623Z,18.60
2019-06-15T03:37:02.212Z,18.60
2019-06-15T03:39:28.699Z,18.60
2019-06-15T03:41:55.205Z,18.60
2019-06-15T03:44:21.714Z,18.60
2019-06-15T03:46:48.676Z,18.60
2019-06-15T03:49:15.527Z,18.60
2019-06-15T03:51:41.996Z,18.60
2019-06-15T03:54:08.995Z,18.60
2019-06-15T03:56:35.482Z,18.70
2019-06-15T03:59:02.489Z,18.80
2019-06-15T04:01:33.270Z,18.90
2019-06-15T04:04:00.331Z,18.90
2019-06-15T04:06:26.931Z,19.00
2019-06-15T04:08:53.630Z,19.20
2019-06-15T04:11:20.375Z,19.20
2019-06-15T04:13:47.103Z,19.30
2019-06-15T04:16:13.603Z,19.50
2019-06-15T04:18:40.072Z,19.70
2019-06-15T04:21:06.590Z,19.90
2019-06-15T04:23:33.466Z,20.10
2019-06-15T04:26:00.079Z,20.30
2019-06-15T04:28:26.849Z,20.40
2019-06-15T04:30:53.679Z,20.40
2019-06-15T04:33:20.156Z,20.40
2019-06-15T04:35:46.755Z,20.50
2019-06-15T04:38:13.214Z,20.50
2019-06-15T04:40:39.980Z,20.50
2019-06-15T04:43:06.526Z,20.50
2019-06-15T04:45:33.059Z,20.60
2019-06-15T04:47:59.839Z,20.60
2019-06-15T04:50:26.349Z,20.60
2019-06-15T04:52:52.819Z,20.70
2019-06-15T04:55:19.811Z,20.80
2019-06-15T04:57:46.523Z,20.80
2019-06-15T05:00:13.360Z,20.90
2019-06-15T05:02:39.898Z,20.90
2019-06-15T05:05:06.491Z,20.90
2019-06-15T05:07:32.996Z,20.90
2019-06-15T05:09:59.863Z,20.90
2019-06-15T05:12:26.867Z,21.00
2019-06-15T05:14:53.335Z,21.20
2019-06-15T05:17:20.346Z,21.30
2019-06-15T05:19:47.052Z,21.40
2019-06-15T05:22:13.559Z,21.60
2019-06-15T05:24:40.413Z,21.70
2019-06-15T05:27:07.194Z,21.90
2019-06-15T05:29:33.714Z,22.10
2019-06-15T05:32:00.333Z,22.10
2019-06-15T05:34:26.966Z,22.40
2019-06-15T05:36:53.459Z,22.50
2019-06-15T05:39:20.420Z,22.60
2019-06-15T05:41:47.164Z,22.60
2019-06-15T05:44:13.624Z,22.60
2019-06-15T05:46:40.152Z,22.60
2019-06-15T05:49:06.987Z,22.70
2019-06-15T05:51:33.789Z,22.90
2019-06-15T05:54:00.834Z,23.10
2019-06-15T05:56:27.451Z,23.30
2019-06-15T05:58:54.012Z,23.50
2019-06-15T06:01:21.565Z,23.70
2019-06-15T06:04:02.360Z,23.60
2019-06-15T06:06:28.953Z,23.40
2019-06-15T06:08:55.814Z,23.40
2019-06-15T06:11:22.776Z,23.30
2019-06-15T06:13:49.622Z,23.30
2019-06-15T06:16:16.618Z,23.40
2019-06-15T06:18:43.124Z,23.40
2019-06-15T06:21:09.587Z,23.30
2019-06-15T06:23:36.622Z,23.20
2019-06-15T06:26:03.100Z,23.40
2019-06-15T06:28:29.875Z,23.70
2019-06-15T06:30:56.415Z,24.00
2019-06-15T06:33:23.735Z,24.10
2019-06-15T06:35:50.479Z,24.30
2019-06-15T06:38:17.376Z,24.50
2019-06-15T06:40:44.244Z,24.70
2019-06-15T06:43:13.053Z,24.70
2019-06-15T06:45:39.677Z,24.90
2019-06-15T06:48:07.785Z,25.00
2019-06-15T06:50:34.611Z,25.30
2019-06-15T06:53:01.219Z,25.30
2019-06-15T06:55:27.931Z,25.50
2019-06-15T06:57:57.169Z,25.60
2019-06-15T07:00:23.027Z,26.00
2019-06-15T07:02:51.204Z,26.60
2019-06-15T07:05:18.001Z,26.90
2019-06-15T07:07:45.273Z,27.40
2019-06-15T07:10:13.348Z,27.60
2019-06-15T07:12:39.870Z,28.50
2019-06-15T07:15:06.442Z,29.00
2019-06-15T07:17:33.182Z,29.00
2019-06-15T07:20:00.518Z,29.30
2019-06-15T07:22:27.462Z,29.30
2019-06-15T07:24:54.924Z,28.90
2019-06-15T07:27:21.576Z,28.80
2019-06-15T07:29:48.302Z,28.40
2019-06-15T07:32:14.931Z,28.10
2019-06-15T07:34:42.877Z,27.80
2019-06-15T07:37:11.111Z,27.40
2019-06-15T07:39:37.901Z,27.10
2019-06-15T07:42:04.445Z,27.00
2019-06-15T07:44:31.044Z,27.20
2019-06-15T07:46:57.739Z,27.30
2019-06-15T07:49:24.375Z,27.50
2019-06-15T07:51:51.529Z,27.80
2019-06-15T07:54:18.758Z,28.40
2019-06-15T07:56:46.027Z,29.00
2019-06-15T07:59:12.603Z,29.80
2019-06-15T08:01:39.580Z,30.50
2019-06-15T08:04:06.690Z,30.80
2019-06-15T08:06:46.483Z,31.20
2019-06-15T08:09:15.737Z,31.40
2019-06-15T08:11:45.175Z,32.00
2019-06-15T08:14:15.839Z,32.20
2019-06-15T08:16:44.392Z,32.40
2019-06-15T08:19:12.514Z,32.40
2019-06-15T08:21:39.517Z,32.00
2019-06-15T08:24:08.605Z,31.80
2019-06-15T08:26:39.139Z,31.90
2019-06-15T08:29:10.727Z,31.70
2019-06-15T08:31:37.905Z,31.70
2019-06-15T08:34:05.008Z,31.70
2019-06-15T08:36:31.865Z,31.40
2019-06-15T08:39:01.764Z,31.50
2019-06-15T08:41:28.681Z,31.10
2019-06-15T08:43:55.254Z,31.10
2019-06-15T08:46:21.925Z,31.10
2019-06-15T08:48:51.737Z,31.40
2019-06-15T08:51:18.428Z,31.60
2019-06-15T08:53:45.636Z,32.00
2019-06-15T08:56:12.400Z,32.40
2019-06-15T08:58:38.925Z,32.80
2019-06-15T09:01:05.850Z,33.20
2019-06-15T09:03:32.897Z,33.70
2019-06-15T09:06:02.644Z,33.40
2019-06-15T09:08:29.724Z,33.80
2019-06-15T09:10:58.376Z,34.30
2019-06-15T09:13:25.437Z,34.30
2019-06-15T09:15:52.620Z,34.70
2019-06-15T09:18:19.964Z,34.90
2019-06-15T09:20:48.042Z,34.80
2019-06-15T09:23:15.919Z,35.30
2019-06-15T09:25:43.561Z,35.50
2019-06-15T09:28:10.528Z,35.50
2019-06-15T09:30:37.860Z,34.90
2019-06-15T09:33:04.850Z,34.60
2019-06-15T09:35:31.968Z,34.80
2019-06-15T09:37:58.847Z,35.70
2019-06-15T09:40:26.693Z,34.90
2019-06-15T09:42:53.651Z,34.40
2019-06-15T09:45:21.437Z,34.20
2019-06-15T09:47:48.533Z,33.90
2019-06-15T09:50:16.360Z,33.80
2019-06-15T09:52:43.573Z,33.40
2019-06-15T09:55:12.318Z,33.50
2019-06-15T09:57:40.106Z,33.50
2019-06-15T10:00:07.215Z,33.60
2019-06-15T10:02:43.731Z,33.50
2019-06-15T10:05:11.534Z,33.80
2019-06-15T10:07:38.676Z,34.20
2019-06-15T10:10:05.619Z,34.00
2019-06-15T10:12:32.856Z,34.00
2019-06-15T10:14:59.993Z,33.90
2019-06-15T10:17:27.432Z,34.40
2019-06-15T10:19:59.181Z,34.40
2019-06-15T10:22:26.910Z,34.80
2019-06-15T10:24:54.461Z,35.00
2019-06-15T10:27:22.225Z,35.30
2019-06-15T10:29:50.144Z,34.80
2019-06-15T10:32:17.853Z,34.60
2019-06-15T10:34:45.137Z,35.30
2019-06-15T10:37:12.338Z,35.60
2019-06-15T10:39:40.047Z,35.10
2019-06-15T10:42:07.123Z,34.90
2019-06-15T10:44:34.775Z,35.00
2019-06-15T10:47:02.330Z,34.50
2019-06-15T10:49:29.714Z,34.30
2019-06-15T10:51:57.364Z,34.30
2019-06-15T10:54:24.686Z,34.80
2019-06-15T10:56:52.215Z,35.20
2019-06-15T10:59:20.091Z,35.30
2019-06-15T11:01:47.336Z,35.30
2019-06-15T11:04:14.832Z,35.20
2019-06-15T11:06:42.311Z,35.20
2019-06-15T11:09:09.929Z,35.00
2019-06-15T11:11:37.087Z,34.90
2019-06-15T11:14:04.331Z,34.90
2019-06-15T11:16:31.814Z,34.80
2019-06-15T11:18:59.132Z,35.40
2019-06-15T11:21:26.503Z,35.40
2019-06-15T11:23:53.851Z,35.50
2019-06-15T11:26:21.093Z,35.40
2019-06-15T11:28:48.754Z,35.00
2019-06-15T11:31:16.424Z,34.50
2019-06-15T11:33:43.695Z,33.60
2019-06-15T11:36:11.581Z,32.70
2019-06-15T11:38:39.592Z,31.80
2019-06-15T11:41:07.135Z,31.80
2019-06-15T11:43:35.112Z,31.50
2019-06-15T11:46:02.879Z,31.00
2019-06-15T11:48:30.086Z,30.60
2019-06-15T11:50:57.761Z,30.80
2019-06-15T11:53:27.453Z,30.70
2019-06-15T11:55:55.180Z,30.50
2019-06-15T11:58:22.394Z,30.10
2019-06-15T12:00:50.131Z,29.70
2019-06-15T12:03:17.341Z,29.30
2019-06-15T12:05:44.697Z,29.70
2019-06-15T12:08:11.488Z,29.90
2019-06-15T12:10:39.128Z,29.70
2019-06-15T12:13:06.768Z,29.30
2019-06-15T12:15:33.922Z,30.30
2019-06-15T12:18:01.284Z,31.60
2019-06-15T12:20:28.590Z,33.00
2019-06-15T12:22:55.884Z,32.70
2019-06-15T12:25:23.327Z,32.40
2019-06-15T12:27:50.891Z,32.30
2019-06-15T12:30:21.448Z,31.20
2019-06-15T12:32:48.466Z,30.80
2019-06-15T12:35:15.499Z,29.50
2019-06-15T12:37:42.690Z,29.20
2019-06-15T12:40:09.827Z,30.00
2019-06-15T12:42:37.107Z,31.20
2019-06-15T12:45:04.141Z,30.70
2019-06-15T12:47:32.737Z,30.30
2019-06-15T12:49:59.823Z,30.30
2019-06-15T12:52:27.075Z,31.60
2019-06-15T12:54:54.185Z,32.40
2019-06-15T12:57:21.239Z,33.00
2019-06-15T12:59:48.362Z,33.60
2019-06-15T13:02:15.182Z,33.30
2019-06-15T13:04:42.630Z,32.70
2019-06-15T13:07:10.075Z,32.90
2019-06-15T13:09:37.067Z,31.80
2019-06-15T13:12:04.213Z,30.50
2019-06-15T13:14:31.120Z,30.90
2019-06-15T13:16:57.952Z,32.00
2019-06-15T13:19:24.965Z,31.80
2019-06-15T13:21:51.813Z,32.10
2019-06-15T13:24:18.773Z,31.60
2019-06-15T13:26:45.711Z,31.70
2019-06-15T13:29:12.952Z,31.60
2019-06-15T13:31:40.191Z,32.00
2019-06-15T13:34:09.588Z,31.60
2019-06-15T13:36:36.987Z,30.50
2019-06-15T13:39:04.625Z,29.20
2019-06-15T13:41:31.538Z,28.20
2019-06-15T13:43:58.501Z,27.60
2019-06-15T13:46:25.834Z,28.60
2019-06-15T13:48:52.475Z,29.70
2019-06-15T13:51:19.674Z,30.20
2019-06-15T13:53:46.678Z,30.30
2019-06-15T13:56:14.482Z,30.30
2019-06-15T13:58:41.601Z,30.50
2019-06-15T14:01:08.974Z,30.90
2019-06-15T14:03:36.223Z,31.50
2019-06-15T14:06:03.647Z,31.40
2019-06-15T14:08:30.998Z,32.00
2019-06-15T14:10:58.509Z,32.40
2019-06-15T14:13:25.704Z,33.10
2019-06-15T14:15:52.424Z,33.30
2019-06-15T14:18:19.611Z,32.00
2019-06-15T14:20:46.881Z,31.20
2019-06-15T14:23:13.684Z,30.40
2019-06-15T14:25:40.918Z,30.00
2019-06-15T14:28:07.741Z,29.50
2019-06-15T14:30:34.750Z,29.40
2019-06-15T14:33:01.685Z,28.70
2019-06-15T14:35:28.532Z,27.80
2019-06-15T14:37:55.286Z,27.50
2019-06-15T14:40:22.097Z,27.40
2019-06-15T14:42:48.615Z,27.80
2019-06-15T14:45:15.101Z,28.80
2019-06-15T14:47:41.704Z,29.70
2019-06-15T14:50:08.419Z,29.70
2019-06-15T14:52:35.248Z,29.80
2019-06-15T14:55:02.041Z,29.40
2019-06-15T14:57:29.428Z,28.70
2019-06-15T15:00:03.948Z,28.40
2019-06-15T15:02:26.245Z,28.60
2019-06-15T15:04:56.287Z,29.10
2019-06-15T15:07:22.619Z,29.70
2019-06-15T15:09:50.106Z,30.00
2019-06-15T15:12:17.254Z,30.20
2019-06-15T15:14:43.758Z,30.00
2019-06-15T15:17:10.390Z,29.90
2019-06-15T15:19:37.240Z,29.80
2019-06-15T15:22:04.124Z,29.50
2019-06-15T15:24:30.965Z,28.50
2019-06-15T15:26:57.992Z,27.50
2019-06-15T15:29:27.058Z,26.90
2019-06-15T15:31:54.115Z,27.20
2019-06-15T15:34:20.778Z,27.40
2019-06-15T15:36:48.105Z,27.10
2019-06-15T15:39:16.743Z,27.50
2019-06-15T15:41:46.812Z,28.50
2019-06-15T15:44:16.069Z,28.70
2019-06-15T15:46:43.146Z,28.50
2019-06-15T15:49:10.868Z,27.50
2019-06-15T15:51:37.679Z,27.30
2019-06-15T15:54:07.101Z,27.50
2019-06-15T15:56:36.087Z,27.70
2019-06-15T15:59:03.838Z,27.90
2019-06-15T16:01:31.077Z,28.10
2019-06-15T16:04:01.033Z,28.40
2019-06-15T16:06:28.014Z,28.90
2019-06-15T16:08:56.959Z,28.50
2019-06-15T16:11:23.711Z,28.30
2019-06-15T16:13:50.539Z,28.00
2019-06-15T16:16:17.261Z,27.90
2019-06-15T16:18:44.010Z,27.50
2019-06-15T16:21:11.453Z,27.00
2019-06-15T16:23:37.953Z,26.50
2019-06-15T16:26:05.198Z,26.30
2019-06-15T16:28:32.213Z,26.20
2019-06-15T16:31:06.661Z,26.10
2019-06-15T16:33:27.351Z,25.90
2019-06-15T16:35:56.788Z,25.80
2019-06-15T16:38:22.680Z,25.70
2019-06-15T16:40:49.326Z,25.60
2019-06-15T16:43:17.551Z,25.50
2019-06-15T16:45:46.637Z,25.30
2019-06-15T16:48:13.512Z,25.10
2019-06-15T16:50:40.327Z,25.00
2019-06-15T16:53:07.146Z,25.00
2019-06-15T16:55:36.533Z,24.90
2019-06-15T16:58:02.450Z,24.90
2019-06-15T17:00:32.573Z,24.70
2019-06-15T17:02:57.657Z,24.70
2019-06-15T17:05:27.515Z,24.60
2019-06-15T17:07:56.544Z,24.60
2019-06-15T17:10:28.252Z,24.30
2019-06-15T17:12:56.178Z,24.10
2019-06-15T17:15:22.894Z,24.10
2019-06-15T17:17:49.642Z,24.30
2019-06-15T17:20:18.620Z,24.40
2019-06-15T17:22:47.249Z,24.30
2019-06-15T17:25:16.460Z,24.20
2019-06-15T17:27:51.678Z,24.10
2019-06-15T17:30:18.273Z,24.00
2019-06-15T17:32:44.739Z,23.90
2019-06-15T17:35:12.504Z,23.70
2019-06-15T17:37:39.512Z,23.70
2019-06-15T17:40:06.444Z,23.50
2019-06-15T17:42:33.406Z,23.30
2019-06-15T17:45:00.284Z,23.30
2019-06-15T17:47:27.529Z,23.10
2019-06-15T17:49:56.185Z,23.10
2019-06-15T17:52:22.883Z,23.00
2019-06-15T17:54:49.658Z,22.90
2019-06-15T17:57:16.122Z,22.80
2019-06-15T17:59:43.282Z,22.70
2019-06-15T18:02:10.117Z,22.60
2019-06-15T18:04:37.405Z,22.60
2019-06-15T18:07:03.965Z,22.50
2019-06-15T18:09:31.295Z,22.50
2019-06-15T18:11:57.994Z,22.40
2019-06-15T18:14:26.375Z,22.30
2019-06-15T18:16:53.059Z,22.10
2019-06-15T18:19:22.958Z,22.00
2019-06-15T18:21:49.611Z,21.90
2019-06-15T18:24:16.575Z,21.80
2019-06-15T18:26:43.831Z,21.70
2019-06-15T18:29:10.795Z,21.70
2019-06-15T18:31:37.310Z,21.70
2019-06-15T18:34:10.177Z,21.60
2019-06-15T18:36:32.257Z,21.60
2019-06-15T18:38:59.531Z,21.50
2019-06-15T18:41:26.816Z,21.40
2019-06-15T18:43:53.646Z,21.40
2019-06-15T18:46:20.512Z,21.30
2019-06-15T18:48:47.191Z,21.20
2019-06-15T18:51:16.411Z,21.20
2019-06-15T18:53:42.655Z,21.10
2019-06-15T18:56:09.255Z,21.00
2019-06-15T18:58:37.165Z,20.90
2019-06-15T19:01:06.691Z,20.80
2019-06-15T19:03:32.871Z,20.70
2019-06-15T19:05:59.575Z,20.60
2019-06-15T19:08:26.475Z,20.50
2019-06-15T19:10:53.339Z,20.30
2019-06-15T19:13:20.111Z,20.30
2019-06-15T19:15:46.987Z,20.20
2019-06-15T19:18:14.066Z,20.10
2019-06-15T19:20:41.064Z,19.90
2019-06-15T19:23:07.674Z,19.80
2019-06-15T19:25:36.404Z,19.70
2019-06-15T19:28:02.672Z,19.60
2019-06-15T19:30:29.617Z,19.50
2019-06-15T19:32:56.756Z,19.30
2019-06-15T19:35:26.382Z,19.20
2019-06-15T19:37:56.188Z,19.00
2019-06-15T19:40:23.184Z,18.90
2019-06-15T19:42:49.871Z,18.80
2019-06-15T19:45:18.426Z,18.70
2019-06-15T19:47:47.025Z,18.60
2019-06-15T19:50:16.484Z,18.50
2019-06-15T19:52:42.721Z,18.50
2019-06-15T19:55:09.423Z,18.40
2019-06-15T19:57:36.206Z,18.40
2019-06-15T20:00:03.399Z,18.50
2019-06-15T20:02:30.377Z,18.50
2019-06-15T20:05:03.216Z,18.50
2019-06-15T20:07:26.127Z,18.50
2019-06-15T20:09:53.290Z,18.50
2019-06-15T20:12:22.053Z,18.40
2019-06-15T20:14:48.147Z,18.40
2019-06-15T20:17:17.096Z,18.30
2019-06-15T20:19:43.321Z,18.30
2019-06-15T20:22:09.979Z,18.20
2019-06-15T20:24:36.704Z,18.20
2019-06-15T20:27:07.026Z,18.20
2019-06-15T20:29:41.522Z,18.10
2019-06-15T20:32:08.371Z,18.10
2019-06-15T20:34:37.172Z,18.00
2019-06-15T20:37:03.522Z,18.00
2019-06-15T20:39:30.991Z,17.90
2019-06-15T20:41:57.728Z,17.90
2019-06-15T20:44:26.092Z,17.80
2019-06-15T20:46:52.756Z,17.70
2019-06-15T20:49:19.310Z,17.60
2019-06-15T20:51:46.289Z,17.50
2019-06-15T20:54:13.486Z,17.40
2019-06-15T20:56:40.514Z,17.20
2019-06-15T20:59:07.280Z,17.20
2019-06-15T21:01:36.668Z,17.00
2019-06-15T21:04:03.134Z,16.90
2019-06-15T21:06:30.109Z,16.80
2019-06-15T21:08:57.279Z,16.70
2019-06-15T21:11:26.389Z,16.70
2019-06-15T21:13:55.804Z,16.60
2019-06-15T21:16:26.237Z,16.50
2019-06-15T21:18:53.478Z,16.40
2019-06-15T21:21:21.377Z,16.40
2019-06-15T21:23:47.960Z,16.40
2019-06-15T21:26:16.392Z,16.30
2019-06-15T21:28:43.171Z,16.20
2019-06-15T21:31:10.131Z,16.20
2019-06-15T21:33:36.888Z,16.20
2019-06-15T21:36:06.064Z,16.10
2019-06-15T21:38:32.276Z,16.10
2019-06-15T21:40:58.835Z,16.10
2019-06-15T21:43:26.577Z,16.00
2019-06-15T21:45:53.259Z,16.10
2019-06-15T21:48:19.771Z,16.10
2019-06-15T21:50:50.109Z,16.10
2019-06-15T21:53:16.876Z,16.10
2019-06-15T21:55:43.571Z,16.10
2019-06-15T21:58:10.305Z,16.00
2019-06-15T22:00:47.984Z,16.00
2019-06-15T22:03:16.382Z,16.00
2019-06-15T22:05:46.073Z,15.90
2019-06-15T22:08:12.555Z,15.90
2019-06-15T22:10:39.059Z,15.90
2019-06-15T22:13:06.547Z,15.90
2019-06-15T22:15:33.638Z,15.80
2019-06-15T22:18:00.739Z,15.80
2019-06-15T22:20:27.903Z,15.80
2019-06-15T22:22:54.723Z,15.80
2019-06-15T22:25:21.263Z,15.70
2019-06-15T22:31:09.815Z,15.70
2019-06-15T22:33:36.589Z,15.60
2019-06-15T22:36:18.600Z,15.50
2019-06-15T22:38:32.110Z,15.50
2019-06-15T22:40:58.858Z,15.40
2019-06-15T22:43:27.358Z,15.40
2019-06-15T22:45:55.958Z,15.40
2019-06-15T22:48:22.631Z,15.40
2019-06-15T22:50:49.102Z,15.40
2019-06-15T22:53:16.466Z,15.30
2019-06-15T22:55:46.138Z,15.40
2019-06-15T22:58:12.803Z,15.30
2019-06-15T23:00:39.778Z,15.30
2019-06-15T23:03:06.548Z,15.30
2019-06-15T23:05:33.082Z,15.20
2019-06-15T23:07:59.563Z,15.20
2019-06-15T23:10:26.342Z,15.20
2019-06-15T23:12:53.064Z,15.10
2019-06-15T23:15:19.869Z,15.10
2019-06-15T23:17:46.977Z,15.00
2019-06-15T23:20:16.899Z,15.00
2019-06-15T23:22:43.620Z,15.00
2019-06-15T23:25:10.364Z,14.90
2019-06-15T23:27:36.813Z,14.80
2019-06-15T23:30:03.637Z,14.80
2019-06-15T23:32:30.728Z,14.80
2019-06-15T23:34:57.489Z,14.80
2019-06-15T23:37:26.501Z,14.70
2019-06-15T23:40:11.284Z,14.70
2019-06-15T23:42:37.795Z,14.70
2019-06-15T23:45:06.754Z,14.70
2019-06-15T23:47:33.271Z,14.90
2019-06-15T23:50:00.436Z,15.00
2019-06-15T23:52:27.173Z,15.00
2019-06-15T23:54:54.161Z,14.90
2019-06-15T23:57:21.102Z,14.90
2019-06-15T23:59:47.875Z,14.90
